• Join FlightAware (Why Join?)
  • Login
  • US Flag 
10:31AM EDT


 

Airport Tracker/Info


-or-


 

Live Flight TrackerFlight Track Log ✈ ASQ5580 ✈ 27-Jun-2013 ✈ KATL - KECP

Flight Track Log - Related Links

Times and Time Zones

All times are in EDT time to prevent confusion due to time zone crossing. See the ASQ5580 flight status page for this flight to view local times or setup timezone preferences in your user account.

Time Position Orientation Groundspeed Altitude Reporting Facility
EDT Latitude Longitude Course Direction KTS MPH feet Rate Location/Type
09:02AM 33.6333 -84.4833 202° Southwest 153 176 3,400  Level Atlanta TRACON
09:03AM 33.6333 -84.5500 270° West 241 277 5,500 2,340 Climbing Atlanta TRACON
09:04AM 33.6333 -84.6333 270° West 266 306 8,100 2,460 Climbing Atlanta TRACON
09:04AM 33.5881 -84.6897 226° Southwest 284 327 10,000 1,080 Climbing Atlanta Center
09:05AM 33.5044 -84.6967 184° South 299 344 10,100 360 Climbing Atlanta Center
09:06AM 33.4022 -84.6858 175° South 336 387 10,800 1,860 Climbing Atlanta Center
09:07AM 33.2639 -84.3559 202° Southwest  Level FlightAware Approximate
09:07AM 33.3044 -84.6478 162° South 372 428 13,900  Level Atlanta Center
09:08AM 33.2064 -84.6100 162° South 372 428 15,900 1,740 Climbing Atlanta Center
09:09AM 33.1022 -84.5669 161° South 383 441 17,400 1,500 Climbing Atlanta Center
09:10AM 32.9958 -84.5217 160° South 395 455 18,900 1,500 Climbing Atlanta Center
09:11AM 32.8811 -84.5261 182° South 413 475 20,400 1,440 Climbing Atlanta Center
09:12AM 32.7642 -84.5278 181° South 420 483 21,800 780 Climbing Atlanta Center
09:13AM 32.6431 -84.5372 184° South 432 497 22,000 60 Climbing Atlanta Center
09:14AM 32.5136 -84.5536 186° South 447 514 22,000  Level Atlanta Center
09:15AM 32.3861 -84.5775 189° South 457 526 22,000  Level Atlanta Center
09:16AM 32.2753 -84.6456 207° Southwest 455 524 22,000  Level Atlanta Center
09:17AM 32.1600 -84.7136 207° Southwest 455 524 22,000  Level Atlanta Center
09:20AM 31.9217 -84.8581 207° Southwest 467 537 22,000  Level Jacksonville Center
09:21AM 31.8183 -84.9244 209° Southwest 467 537 22,000 -300 Level Jacksonville Center
09:22AM 31.7083 -85.0075 213° Southwest 467 537 21,500 -780 Descending Jacksonville Center
09:23AM 31.5808 -85.0239 186° South 457 526 20,500 -1,440 Descending Jacksonville Center
09:24AM 31.4553 -85.0358 185° South 446 513 18,700 -1,800 Descending Jacksonville Center
09:25AM 31.3319 -85.0425 183° South 451 519 16,900 -1,860 Descending Jacksonville Center
09:26AM 31.2250 -85.0644 190° South 430 495 15,100 -1,800 Descending Jacksonville Center
09:27AM 31.1297 -85.1472 217° Southwest 383 441 13,400 -1,620 Descending Jacksonville Center
09:28AM 31.0447 -85.2275 219° Southwest 390 449 11,900 -1,500 Descending Jacksonville Center
09:29AM 30.9619 -85.2958 215° Southwest 390 449 10,400 -1,380 Descending Jacksonville Center
09:30AM 30.8919 -85.3544 216° Southwest 353 406 9,200 -1,200 Descending Jacksonville Center
09:31AM 30.8264 -85.4086 215° Southwest 313 360 8,000 -1,020 Descending Jacksonville Center
09:32AM 30.7647 -85.4600 216° Southwest 289 333 7,200 -1,260 Descending Jacksonville Center
09:33AM 30.7031 -85.5067 213° Southwest 282 325 5,500 -1,800 Descending Jacksonville Center
09:34AM 30.6436 -85.5606 218° Southwest 277 319 3,700 -1,680 Descending Jacksonville Center
09:35AM 30.5822 -85.6000 209° Southwest 265 305 2,200 -900 Descending Jacksonville Center
09:36AM 30.5167 -85.6342 204° Southwest 260 299 2,000 -120 Descending Jacksonville Center
09:37AM 30.4539 -85.6517 194° South 254 292 2,000 -60 Level Jacksonville Center
09:38AM 30.3947 -85.6789 202° Southwest 244 281 1,900 -300 Descending Jacksonville Center
09:39AM 30.3461 -85.7111 210° Southwest 226 260 1,500 -420 Descending Jacksonville Center
09:40AM 30.3056 -85.7411 213° Southwest 199 229 1,100 -480 Descending Jacksonville Center
09:41AM 30.3133 -85.7775 284° West 116 133 600 -480 Descending Jacksonville Center
09:42AM 30.3381 -85.7928 332° Northwest 88 101 200 -420 Descending Jacksonville Center